createdAt,value
2019-01-30T00:02:08.464Z,81.41
2019-01-30T00:04:38.844Z,81.37
2019-01-30T00:07:09.336Z,81.37
2019-01-30T00:09:39.734Z,81.46
2019-01-30T00:12:10.179Z,81.45
2019-01-30T00:14:40.601Z,81.46
2019-01-30T00:17:10.876Z,81.46
2019-01-30T00:19:41.261Z,81.46
2019-01-30T00:22:11.601Z,81.50
2019-01-30T00:24:41.837Z,81.52
2019-01-30T00:27:12.167Z,81.57
2019-01-30T00:29:42.524Z,81.58
2019-01-30T00:32:15.065Z,81.62
2019-01-30T00:34:45.399Z,81.67
2019-01-30T00:37:15.615Z,81.71
2019-01-30T00:39:45.835Z,81.73
2019-01-30T00:42:16.130Z,81.74
2019-01-30T00:44:46.388Z,81.74
2019-01-30T00:47:16.652Z,81.75
2019-01-30T00:49:47.021Z,81.77
2019-01-30T00:52:17.348Z,81.78
2019-01-30T00:54:47.701Z,81.76
2019-01-30T00:57:17.922Z,81.74
2019-01-30T00:59:48.289Z,81.81
2019-01-30T01:02:18.615Z,81.79
2019-01-30T01:04:49.013Z,81.86
2019-01-30T01:07:19.254Z,81.88
2019-01-30T01:09:49.569Z,81.84
2019-01-30T01:12:19.950Z,81.90
2019-01-30T01:14:50.470Z,81.88
2019-01-30T01:17:20.770Z,81.91
2019-01-30T01:19:50.990Z,81.90
2019-01-30T01:22:21.772Z,81.89
2019-01-30T01:24:52.115Z,81.96
2019-01-30T01:27:22.399Z,81.94
2019-01-30T01:29:52.711Z,81.91
2019-01-30T01:32:22.927Z,81.93
2019-01-30T01:34:53.217Z,81.87
2019-01-30T01:37:23.509Z,81.83
2019-01-30T01:40:02.339Z,81.80
2019-01-30T01:42:32.707Z,81.83
2019-01-30T01:45:03.062Z,81.80
2019-01-30T01:47:33.483Z,81.79
2019-01-30T01:50:04.106Z,81.77
2019-01-30T01:52:34.374Z,81.79
2019-01-30T01:55:05.326Z,81.82
2019-01-30T01:57:35.642Z,81.76
2019-01-30T02:00:08.799Z,81.76
2019-01-30T02:02:39.091Z,81.76
2019-01-30T02:05:12.729Z,81.83
2019-01-30T02:07:43.024Z,81.80
2019-01-30T02:10:16.821Z,81.76
2019-01-30T02:12:47.296Z,81.76
2019-01-30T02:15:20.397Z,81.76
2019-01-30T02:17:51.191Z,81.79
2019-01-30T02:20:39.537Z,81.73
2019-01-30T02:23:09.822Z,81.82
2019-01-30T02:25:40.583Z,81.80
2019-01-30T02:28:10.863Z,81.79
2019-01-30T02:30:47.570Z,81.76
2019-01-30T02:33:13.166Z,81.70
2019-01-30T02:35:43.550Z,81.67
2019-01-30T02:38:13.842Z,81.77
2019-01-30T02:40:52.167Z,81.74
2019-01-30T02:43:22.428Z,81.76
2019-01-30T02:45:52.716Z,81.76
2019-01-30T02:48:23.060Z,81.82
2019-01-30T02:50:53.468Z,81.78
2019-01-30T02:53:23.730Z,81.75
2019-01-30T02:55:54.042Z,81.71
2019-01-30T02:58:24.323Z,81.75
2019-01-30T03:00:59.408Z,81.71
2019-01-30T03:03:26.831Z,81.66
2019-01-30T03:05:57.260Z,81.63
2019-01-30T03:08:27.638Z,81.68
2019-01-30T03:10:57.896Z,81.66
2019-01-30T03:13:28.255Z,81.63
2019-01-30T03:15:58.573Z,81.63
2019-01-30T03:18:30.208Z,81.62
2019-01-30T03:21:00.551Z,81.61
2019-01-30T03:23:31.080Z,81.60
2019-01-30T03:26:03.174Z,81.57
2019-01-30T03:28:33.413Z,81.64
2019-01-30T03:31:16.842Z,81.60
2019-01-30T03:33:38.781Z,81.56
2019-01-30T03:36:09.419Z,81.55
2019-01-30T03:38:39.640Z,81.60
2019-01-30T03:41:10.053Z,81.62
2019-01-30T03:43:40.529Z,81.58
2019-01-30T03:46:10.984Z,81.63
2019-01-30T03:48:41.251Z,81.63
2019-01-30T03:51:11.601Z,81.61
2019-01-30T03:53:41.951Z,81.60
2019-01-30T03:56:12.243Z,81.57
2019-01-30T03:58:42.570Z,81.59
2019-01-30T04:01:12.850Z,81.58
2019-01-30T04:03:43.262Z,81.60
2019-01-30T04:06:13.576Z,81.68
2019-01-30T04:08:43.947Z,81.67
2019-01-30T04:11:14.273Z,81.60
2019-01-30T04:13:44.540Z,81.61
2019-01-30T04:16:14.881Z,81.58
2019-01-30T04:18:45.174Z,81.64
2019-01-30T04:21:15.641Z,81.60
2019-01-30T04:23:49.071Z,81.61
2019-01-30T04:26:19.299Z,81.57
2019-01-30T04:28:49.712Z,81.56
2019-01-30T04:31:20.086Z,81.55
2019-01-30T04:33:50.343Z,81.57
2019-01-30T04:36:20.635Z,81.57
2019-01-30T04:38:51.088Z,81.59
2019-01-30T04:41:21.348Z,81.59
2019-01-30T04:43:51.683Z,81.62
2019-01-30T04:46:21.923Z,81.64
2019-01-30T04:48:52.228Z,81.71
2019-01-30T04:51:22.603Z,81.68
2019-01-30T04:53:52.896Z,81.71
2019-01-30T04:56:23.213Z,81.73
2019-01-30T04:58:54.776Z,81.74
2019-01-30T05:01:25.025Z,81.78
2019-01-30T05:03:55.340Z,81.85
2019-01-30T05:06:25.739Z,81.83
2019-01-30T05:08:56.258Z,81.86
2019-01-30T05:11:26.652Z,81.84
2019-01-30T05:13:56.879Z,81.84
2019-01-30T05:16:27.242Z,81.88
2019-01-30T05:18:57.521Z,81.90
2019-01-30T05:21:27.885Z,81.87
2019-01-30T05:23:58.213Z,81.88
2019-01-30T05:26:28.554Z,81.90
2019-01-30T05:28:58.858Z,81.93
2019-01-30T05:31:29.239Z,81.92
2019-01-30T05:33:59.503Z,81.91
2019-01-30T05:36:29.853Z,81.95
2019-01-30T05:39:00.130Z,81.93
2019-01-30T05:41:30.519Z,81.92
2019-01-30T05:44:00.764Z,81.90
2019-01-30T05:46:31.123Z,81.96
2019-01-30T05:49:01.438Z,81.95
2019-01-30T05:51:31.793Z,82.00
2019-01-30T05:54:02.097Z,81.95
2019-01-30T05:56:32.407Z,81.92
2019-01-30T05:59:02.846Z,81.92
2019-01-30T06:01:33.503Z,81.91
2019-01-30T06:04:03.986Z,81.92
2019-01-30T06:06:34.536Z,81.90
2019-01-30T06:09:06.565Z,81.88
2019-01-30T06:11:37.035Z,81.93
2019-01-30T06:14:07.539Z,81.95
2019-01-30T06:16:38.042Z,81.93
2019-01-30T06:19:08.864Z,81.89
2019-01-30T06:21:41.325Z,81.89
2019-01-30T06:24:12.075Z,81.86
2019-01-30T06:26:42.837Z,81.87
2019-01-30T06:29:13.411Z,81.89
2019-01-30T06:31:44.187Z,81.86
2019-01-30T06:34:14.737Z,81.84
2019-01-30T06:36:45.207Z,81.93
2019-01-30T06:39:15.790Z,81.91
2019-01-30T06:41:46.385Z,81.89
2019-01-30T06:44:16.899Z,81.89
2019-01-30T06:46:47.477Z,81.87
2019-01-30T06:49:18.058Z,81.87
2019-01-30T06:51:48.534Z,81.93
2019-01-30T06:54:19.050Z,81.92
2019-01-30T06:56:49.562Z,81.88
2019-01-30T06:59:20.002Z,81.91
2019-01-30T07:01:50.639Z,81.89
2019-01-30T07:04:21.203Z,81.86
2019-01-30T07:06:55.302Z,81.88
2019-01-30T07:09:25.807Z,81.87
2019-01-30T07:11:56.191Z,81.84
2019-01-30T07:14:26.680Z,81.82
2019-01-30T07:16:57.183Z,81.80
2019-01-30T07:19:27.781Z,81.86
2019-01-30T07:21:58.310Z,81.81
2019-01-30T07:24:28.651Z,81.80
2019-01-30T07:26:58.970Z,81.79
2019-01-30T07:29:29.342Z,81.78
2019-01-30T07:31:59.667Z,81.78
2019-01-30T07:34:29.868Z,81.81
2019-01-30T07:37:00.198Z,81.76
2019-01-30T07:39:30.540Z,81.73
2019-01-30T07:42:00.885Z,81.68
2019-01-30T07:44:31.247Z,81.65
2019-01-30T07:47:01.553Z,81.65
2019-01-30T07:49:31.710Z,81.60
2019-01-30T07:52:02.003Z,81.61
2019-01-30T07:54:32.238Z,81.58
2019-01-30T07:57:05.281Z,81.52
2019-01-30T07:59:35.623Z,81.44
2019-01-30T08:02:06.880Z,81.39
2019-01-30T08:04:39.746Z,81.35
2019-01-30T08:07:10.038Z,81.29
2019-01-30T08:09:41.827Z,81.34
2019-01-30T08:12:12.700Z,81.27
2019-01-30T08:14:43.058Z,81.22
2019-01-30T08:17:13.433Z,81.15
2019-01-30T08:19:43.704Z,81.09
2019-01-30T08:22:14.078Z,81.11
2019-01-30T08:24:44.858Z,81.02
2019-01-30T08:27:15.590Z,80.93
2019-01-30T08:29:46.383Z,80.85
2019-01-30T08:32:16.916Z,80.79
2019-01-30T08:34:47.360Z,80.69
2019-01-30T08:37:17.630Z,80.75
2019-01-30T08:39:49.603Z,80.61
2019-01-30T08:42:20.049Z,80.53
2019-01-30T08:44:50.367Z,80.57
2019-01-30T08:47:20.690Z,80.48
2019-01-30T08:49:51.093Z,80.46
2019-01-30T08:52:21.489Z,80.38
2019-01-30T08:54:51.812Z,80.38
2019-01-30T08:57:22.216Z,80.36
2019-01-30T08:59:52.665Z,80.34
2019-01-30T09:02:23.114Z,80.31
2019-01-30T09:04:55.567Z,80.22
2019-01-30T09:07:25.805Z,80.31
2019-01-30T09:09:56.305Z,80.23
2019-01-30T09:12:26.816Z,80.14
2019-01-30T09:14:57.613Z,80.12
2019-01-30T09:17:29.041Z,80.04
2019-01-30T09:20:01.982Z,80.08
2019-01-30T09:22:32.446Z,80.05
2019-01-30T09:25:05.060Z,79.97
2019-01-30T09:27:35.507Z,79.88
2019-01-30T09:30:10.044Z,79.87
2019-01-30T09:32:40.419Z,79.76
2019-01-30T09:35:18.701Z,79.66
2019-01-30T09:37:50.908Z,79.57
2019-01-30T09:40:21.398Z,79.51
2019-01-30T09:42:55.187Z,79.40
2019-01-30T09:45:26.444Z,79.23
2019-01-30T09:47:56.951Z,79.17
2019-01-30T09:50:27.317Z,79.03
2019-01-30T09:53:01.082Z,78.85
2019-01-30T09:55:31.526Z,78.72
2019-01-30T09:58:02.357Z,78.63
2019-01-30T10:00:37.827Z,78.53
2019-01-30T10:03:11.720Z,78.39
2019-01-30T10:05:42.154Z,78.29
2019-01-30T10:08:12.490Z,78.23
2019-01-30T10:10:42.883Z,78.10
2019-01-30T10:13:13.405Z,77.89
2019-01-30T10:15:45.294Z,77.81
2019-01-30T10:18:16.716Z,77.83
2019-01-30T10:20:48.563Z,77.62
2019-01-30T10:23:20.389Z,77.42
2019-01-30T10:25:50.773Z,77.19
2019-01-30T10:28:21.828Z,76.95
2019-01-30T10:30:54.301Z,76.77
2019-01-30T10:33:27.637Z,76.58
2019-01-30T10:36:00.931Z,76.37
2019-01-30T10:38:32.674Z,76.23
2019-01-30T10:41:06.726Z,76.01
2019-01-30T10:43:38.766Z,75.90
2019-01-30T10:46:12.010Z,75.87
2019-01-30T10:48:42.258Z,75.77
2019-01-30T10:51:12.558Z,75.70
2019-01-30T10:53:43.024Z,75.65
2019-01-30T10:56:13.502Z,75.56
2019-01-30T10:58:45.754Z,75.58
2019-01-30T11:01:16.301Z,75.59
2019-01-30T11:03:57.070Z,75.59
2019-01-30T11:06:23.886Z,75.37
2019-01-30T11:08:54.525Z,75.23
2019-01-30T11:11:26.943Z,74.97
2019-01-30T11:13:58.146Z,74.87
2019-01-30T11:16:35.264Z,74.77
2019-01-30T11:19:09.321Z,74.51
2019-01-30T11:21:44.547Z,74.37
2019-01-30T11:24:16.217Z,74.29
2019-01-30T11:26:49.898Z,74.15
2019-01-30T11:29:21.451Z,73.98
2019-01-30T11:31:51.967Z,73.85
2019-01-30T11:34:22.515Z,73.76
2019-01-30T11:36:53.146Z,73.63
2019-01-30T11:39:26.327Z,73.41
2019-01-30T11:41:57.728Z,73.32
2019-01-30T11:44:28.732Z,73.08
2019-01-30T11:46:59.257Z,72.90
2019-01-30T11:49:30.373Z,72.86
2019-01-30T11:52:07.297Z,72.77
2019-01-30T11:54:38.848Z,72.63
2019-01-30T11:57:08.843Z,72.72
2019-01-30T11:59:57.962Z,72.55
2019-01-30T12:02:14.581Z,72.45
2019-01-30T12:04:45.536Z,72.37
2019-01-30T12:07:16.059Z,72.19
2019-01-30T12:09:47.470Z,72.09
2019-01-30T12:12:22.576Z,72.08
2019-01-30T12:14:53.046Z,71.98
2019-01-30T12:17:23.499Z,72.02
2019-01-30T12:19:54.085Z,71.90
2019-01-30T12:22:24.544Z,71.84
2019-01-30T12:24:55.069Z,71.74
2019-01-30T12:27:25.516Z,71.69
2019-01-30T12:29:55.926Z,71.56
2019-01-30T12:32:27.659Z,71.41
2019-01-30T12:35:00.828Z,71.40
2019-01-30T12:37:34.511Z,71.41
2019-01-30T12:40:07.611Z,71.29
2019-01-30T12:42:38.073Z,71.19
2019-01-30T12:45:11.667Z,71.14
2019-01-30T12:47:45.002Z,71.14
2019-01-30T12:50:15.661Z,70.96
2019-01-30T12:52:46.294Z,71.02
2019-01-30T12:55:18.321Z,71.08
2019-01-30T12:57:55.770Z,71.00
2019-01-30T13:00:31.799Z,70.96
2019-01-30T13:03:07.058Z,70.89
2019-01-30T13:05:38.334Z,70.95
2019-01-30T13:08:09.141Z,70.93
2019-01-30T13:10:39.847Z,71.00
2019-01-30T13:13:13.983Z,70.88
2019-01-30T13:15:48.650Z,70.85
2019-01-30T13:18:20.715Z,70.87
2019-01-30T13:20:55.041Z,70.81
2019-01-30T13:23:25.650Z,70.72
2019-01-30T13:25:59.275Z,70.68
2019-01-30T13:28:29.828Z,70.60
2019-01-30T13:31:03.206Z,70.56
2019-01-30T13:33:33.710Z,70.55
2019-01-30T13:36:04.499Z,70.51
2019-01-30T13:38:45.152Z,70.51
2019-01-30T13:41:15.579Z,70.44
2019-01-30T13:43:47.228Z,70.61
2019-01-30T13:46:17.838Z,70.51
2019-01-30T13:48:54.813Z,70.44
2019-01-30T13:51:26.386Z,70.54
2019-01-30T13:54:13.225Z,70.61
2019-01-30T13:57:14.327Z,70.53
2019-01-30T13:59:45.252Z,70.59
2019-01-30T14:02:15.883Z,70.74
2019-01-30T14:04:59.141Z,70.71
2019-01-30T14:07:21.170Z,70.75
2019-01-30T14:09:51.921Z,70.74
2019-01-30T14:12:34.247Z,70.83
2019-01-30T14:15:09.461Z,70.87
2019-01-30T14:17:40.127Z,70.87
2019-01-30T14:20:12.199Z,70.92
2019-01-30T14:22:43.064Z,70.87
2019-01-30T14:25:16.654Z,70.83
2019-01-30T14:27:47.271Z,70.91
2019-01-30T14:30:21.949Z,70.90
2019-01-30T14:32:57.706Z,70.97
2019-01-30T14:35:31.174Z,71.04
2019-01-30T14:38:06.321Z,71.01
2019-01-30T14:40:40.095Z,71.04
2019-01-30T14:43:12.497Z,71.01
2019-01-30T14:45:50.946Z,71.11
2019-01-30T14:48:24.660Z,71.30
2019-01-30T14:50:55.643Z,71.30
2019-01-30T14:53:31.621Z,71.36
2019-01-30T14:56:04.991Z,71.47
2019-01-30T14:58:42.322Z,71.51
2019-01-30T15:01:13.440Z,71.66
2019-01-30T15:03:50.308Z,71.76
2019-01-30T15:06:28.778Z,71.86
2019-01-30T15:08:59.573Z,71.94
2019-01-30T15:11:30.280Z,72.15
2019-01-30T15:14:15.666Z,72.24
2019-01-30T15:16:59.047Z,72.26
2019-01-30T15:19:32.613Z,72.37
2019-01-30T15:22:04.638Z,72.44
2019-01-30T15:24:37.932Z,72.54
2019-01-30T15:27:11.146Z,72.58
2019-01-30T15:29:45.130Z,72.69
2019-01-30T15:32:15.940Z,72.70
2019-01-30T15:34:46.594Z,72.74
2019-01-30T15:37:21.753Z,72.78
2019-01-30T15:39:52.812Z,72.86
2019-01-30T15:42:27.925Z,72.96
2019-01-30T15:45:01.797Z,73.01
2019-01-30T15:47:38.846Z,73.12
2019-01-30T15:50:23.343Z,73.16
2019-01-30T15:52:56.027Z,73.22
2019-01-30T15:55:36.929Z,73.33
2019-01-30T15:58:10.139Z,73.37
2019-01-30T16:00:59.070Z,73.49
2019-01-30T16:03:36.517Z,73.55
2019-01-30T16:06:10.723Z,73.69
2019-01-30T16:08:51.054Z,73.82
2019-01-30T16:11:30.800Z,73.92
2019-01-30T16:14:13.603Z,74.08
2019-01-30T16:16:44.380Z,74.22
2019-01-30T16:19:16.872Z,74.34
2019-01-30T16:21:48.190Z,74.50
2019-01-30T16:24:22.007Z,74.64
2019-01-30T16:26:52.566Z,74.73
2019-01-30T16:29:32.124Z,74.80
2019-01-30T16:32:21.916Z,74.95
2019-01-30T16:34:57.234Z,75.12
2019-01-30T16:37:27.988Z,75.23
2019-01-30T16:40:03.316Z,75.33
2019-01-30T16:42:41.455Z,75.47
2019-01-30T16:45:27.900Z,75.70
2019-01-30T16:48:55.793Z,75.84
2019-01-30T16:52:36.977Z,75.95
2019-01-30T16:55:16.422Z,76.08
2019-01-30T16:57:59.982Z,76.21
2019-01-30T17:00:46.661Z,76.33
2019-01-30T17:03:19.525Z,76.44
2019-01-30T17:05:54.361Z,76.56
2019-01-30T17:08:32.504Z,76.67
2019-01-30T17:11:36.306Z,76.84
2019-01-30T17:14:12.583Z,76.95
2019-01-30T17:16:43.122Z,77.08
2019-01-30T17:19:13.920Z,77.18
2019-01-30T17:21:52.408Z,77.27
2019-01-30T17:24:25.872Z,77.34
2019-01-30T17:26:59.891Z,77.44
2019-01-30T17:29:31.427Z,77.51
2019-01-30T17:32:06.420Z,77.57
2019-01-30T17:34:42.131Z,77.71
2019-01-30T17:37:20.190Z,77.79
2019-01-30T17:39:51.019Z,77.90
2019-01-30T17:42:22.795Z,78.00
2019-01-30T17:44:53.625Z,78.06
2019-01-30T17:47:26.893Z,78.17
2019-01-30T17:50:01.315Z,78.28
2019-01-30T17:52:33.629Z,78.36
2019-01-30T17:55:04.590Z,78.40
2019-01-30T17:57:35.293Z,78.50
2019-01-30T18:00:37.955Z,78.56
2019-01-30T18:03:08.510Z,78.62
2019-01-30T18:05:40.470Z,78.70
2019-01-30T18:08:11.097Z,78.75
2019-01-30T18:10:41.504Z,78.82
2019-01-30T18:13:11.953Z,78.90
2019-01-30T18:15:43.946Z,78.94
2019-01-30T18:18:14.261Z,79.03
2019-01-30T18:20:44.784Z,79.10
2019-01-30T18:23:15.247Z,79.17
2019-01-30T18:25:46.288Z,79.24
2019-01-30T18:28:16.706Z,79.30
2019-01-30T18:30:50.036Z,79.35
2019-01-30T18:33:21.164Z,79.39
2019-01-30T18:35:51.647Z,79.46
2019-01-30T18:38:21.992Z,79.55
2019-01-30T18:40:52.404Z,79.56
2019-01-30T18:43:22.693Z,79.62
2019-01-30T18:45:53.097Z,79.68
2019-01-30T18:48:24.641Z,79.72
2019-01-30T18:50:56.959Z,79.75
2019-01-30T18:53:27.386Z,79.82
2019-01-30T18:56:03.490Z,79.87
2019-01-30T18:58:34.267Z,79.92
2019-01-30T19:01:06.930Z,79.96
2019-01-30T19:03:37.896Z,79.99
2019-01-30T19:06:08.748Z,80.03
2019-01-30T19:08:41.298Z,80.10
2019-01-30T19:11:12.162Z,80.13
2019-01-30T19:13:43.072Z,80.18
2019-01-30T19:16:14.118Z,80.21
2019-01-30T19:18:44.967Z,80.25
2019-01-30T19:21:16.255Z,80.28
2019-01-30T19:23:46.972Z,80.31
2019-01-30T19:26:17.995Z,80.38
2019-01-30T19:28:49.105Z,80.40
2019-01-30T19:31:20.306Z,80.44
2019-01-30T19:33:54.060Z,80.44
2019-01-30T19:36:25.179Z,80.43
2019-01-30T19:38:55.939Z,80.46
2019-01-30T19:41:26.577Z,80.53
2019-01-30T19:43:57.212Z,80.56
2019-01-30T19:46:27.910Z,80.59
2019-01-30T19:48:59.046Z,80.60
2019-01-30T19:51:30.183Z,80.63
2019-01-30T19:54:02.520Z,80.64
2019-01-30T19:56:33.408Z,80.63
2019-01-30T19:59:04.127Z,80.69
2019-01-30T20:01:36.171Z,80.77
2019-01-30T20:04:07.881Z,80.85
2019-01-30T20:06:39.226Z,80.89
2019-01-30T20:09:18.553Z,80.92
2019-01-30T20:11:50.567Z,80.93
2019-01-30T20:14:21.130Z,80.96
2019-01-30T20:16:52.021Z,81.00
2019-01-30T20:19:22.941Z,81.06
2019-01-30T20:22:00.637Z,81.11
2019-01-30T20:24:31.290Z,81.11
2019-01-30T20:27:04.526Z,81.12
2019-01-30T20:29:35.247Z,81.14
2019-01-30T20:32:06.318Z,81.15
2019-01-30T20:34:37.180Z,81.16
2019-01-30T20:37:07.937Z,81.18
2019-01-30T20:39:38.800Z,81.19
2019-01-30T20:42:09.769Z,81.20
2019-01-30T20:44:40.520Z,81.26
2019-01-30T20:47:11.626Z,81.26
2019-01-30T20:49:42.350Z,81.29
2019-01-30T20:52:15.490Z,81.31
2019-01-30T20:54:46.305Z,81.37
2019-01-30T20:57:18.612Z,81.38
2019-01-30T20:59:49.445Z,81.41
2019-01-30T21:02:20.302Z,81.45
2019-01-30T21:04:51.090Z,81.44
2019-01-30T21:07:22.008Z,81.49
2019-01-30T21:09:52.663Z,81.55
2019-01-30T21:12:23.558Z,81.51
2019-01-30T21:14:54.366Z,81.55
2019-01-30T21:17:27.897Z,81.58
2019-01-30T21:19:58.779Z,81.59
2019-01-30T21:22:32.264Z,81.67
2019-01-30T21:25:03.119Z,81.68
2019-01-30T21:27:34.044Z,81.73
2019-01-30T21:30:06.097Z,81.74
2019-01-30T21:32:40.470Z,81.73
2019-01-30T21:35:11.640Z,81.73
2019-01-30T21:37:48.952Z,81.77
2019-01-30T21:40:20.490Z,81.77
2019-01-30T21:42:51.456Z,81.82
2019-01-30T21:45:24.547Z,81.96
2019-01-30T21:47:55.226Z,82.04
2019-01-30T21:50:25.792Z,82.16
2019-01-30T21:52:56.454Z,82.30
2019-01-30T21:55:34.396Z,82.35
2019-01-30T21:58:08.234Z,82.42
2019-01-30T22:00:39.096Z,82.44
2019-01-30T22:03:09.873Z,82.40
2019-01-30T22:05:41.452Z,82.40
2019-01-30T22:08:12.197Z,82.39
2019-01-30T22:10:43.188Z,82.35
2019-01-30T22:13:13.791Z,82.40
2019-01-30T22:15:44.483Z,82.38
2019-01-30T22:18:14.809Z,82.41
2019-01-30T22:20:45.285Z,82.47
2019-01-30T22:23:17.572Z,82.47
2019-01-30T22:25:49.494Z,82.45
2019-01-30T22:28:20.160Z,82.47
2019-01-30T22:30:50.536Z,82.49
2019-01-30T22:33:21.003Z,82.54
2019-01-30T22:35:51.433Z,82.57
2019-01-30T22:38:21.927Z,82.59
2019-01-30T22:40:52.223Z,82.64
2019-01-30T22:43:25.001Z,82.66
2019-01-30T22:45:56.465Z,82.68
2019-01-30T22:48:26.899Z,82.66
2019-01-30T22:50:58.766Z,82.63
2019-01-30T22:53:29.302Z,82.69
2019-01-30T22:55:59.678Z,82.71
2019-01-30T22:58:30.366Z,82.72
2019-01-30T23:01:52.855Z,82.71
2019-01-30T23:05:37.724Z,82.72
2019-01-30T23:08:44.590Z,82.72
2019-01-30T23:12:13.299Z,82.71
2019-01-30T23:15:00.721Z,82.74
2019-01-30T23:18:37.848Z,82.77
2019-01-30T23:21:18.989Z,82.81
2019-01-30T23:24:47.855Z,82.97
2019-01-30T23:27:34.870Z,82.96
2019-01-30T23:30:45.165Z,83.00
2019-01-30T23:33:44.246Z,83.07
2019-01-30T23:37:10.783Z,83.22
2019-01-30T23:40:23.973Z,83.24
2019-01-30T23:43:54.257Z,83.21
2019-01-30T23:46:57.316Z,83.35
2019-01-30T23:50:38.629Z,83.32
2019-01-30T23:54:06.116Z,83.32
2019-01-30T23:57:32.797Z,83.30
